AGJ920 GOBD-DIAP
Flight info
| Callsign | AGJ920 |
|---|---|
| Flight time | N/A |
| Altitude | 360 |
| Route | BD504 ERIDI KOMAB BADIA DIRNO ARBAL ONADA NANAN TUVEM PIVK1L |
| Aircraft | B788/H-SDE3FG/L |
Departure
| Time | 2026-05-01 09:05 |
|---|---|
| Airport | Blaise Diagne International Airport (GOBD) |
Arrival
| Time | N/A |
|---|---|
| Airport | Félix-Houphouët-Boigny International Airport (DIAP) |
| Time | Latitude | Longitude | Altitude | Speed | Heading |
|---|---|---|---|---|---|
| 2026-05-01 08:35 | 14.66981 | -17.06845 | 308 ft | 0 kts | 62° |
| 2026-05-01 08:53 | 14.66974 | -17.06857 | 308 ft | 2 kts | 61° |
| 2026-05-01 08:53 | 14.66967 | -17.06872 | 307 ft | 2 kts | 61° |
| 2026-05-01 08:53 | 14.66959 | -17.06886 | 307 ft | 2 kts | 60° |
| 2026-05-01 08:53 | 14.66954 | -17.06903 | 307 ft | 2 kts | 87° |
| 2026-05-01 08:54 | 14.66960 | -17.06918 | 307 ft | 2 kts | 131° |
| 2026-05-01 08:54 | 14.66975 | -17.06924 | 307 ft | 2 kts | 178° |
| 2026-05-01 08:54 | 14.66983 | -17.06922 | 307 ft | 2 kts | 205° |
| 2026-05-01 08:54 | 14.66969 | -17.06928 | 307 ft | 2 kts | 205° |
| 2026-05-01 08:55 | 14.66956 | -17.06935 | 308 ft | 2 kts | 206° |
| 2026-05-01 08:55 | 14.66947 | -17.06939 | 308 ft | 0 kts | 206° |
| 2026-05-01 08:57 | 14.66945 | -17.06941 | 310 ft | 1 kts | 206° |
| 2026-05-01 08:57 | 14.66938 | -17.06944 | 310 ft | 2 kts | 207° |
| 2026-05-01 08:58 | 14.66925 | -17.06951 | 310 ft | 3 kts | 207° |
| 2026-05-01 08:58 | 14.66907 | -17.06960 | 309 ft | 3 kts | 205° |
| 2026-05-01 08:58 | 14.66885 | -17.06968 | 309 ft | 3 kts | 193° |
| 2026-05-01 08:58 | 14.66860 | -17.06971 | 308 ft | 4 kts | 182° |
| 2026-05-01 08:59 | 14.66833 | -17.06971 | 308 ft | 4 kts | 179° |
| 2026-05-01 08:59 | 14.66801 | -17.06970 | 309 ft | 5 kts | 178° |
| 2026-05-01 08:59 | 14.66766 | -17.06969 | 311 ft | 5 kts | 178° |
| 2026-05-01 08:59 | 14.66728 | -17.06970 | 310 ft | 5 kts | 188° |
| 2026-05-01 09:00 | 14.66693 | -17.06982 | 308 ft | 5 kts | 211° |
| 2026-05-01 09:00 | 14.66669 | -17.07008 | 308 ft | 5 kts | 235° |
| 2026-05-01 09:00 | 14.66654 | -17.07041 | 309 ft | 5 kts | 251° |
| 2026-05-01 09:00 | 14.66637 | -17.07068 | 309 ft | 4 kts | 219° |
| 2026-05-01 09:01 | 14.66612 | -17.07080 | 308 ft | 6 kts | 195° |
| 2026-05-01 09:01 | 14.66548 | -17.07083 | 307 ft | 13 kts | 180° |
| 2026-05-01 09:01 | 14.66432 | -17.07083 | 308 ft | 18 kts | 180° |
| 2026-05-01 09:01 | 14.66308 | -17.07082 | 307 ft | 18 kts | 179° |
| 2026-05-01 09:02 | 14.66183 | -17.07079 | 310 ft | 18 kts | 179° |
| 2026-05-01 09:02 | 14.66057 | -17.07078 | 307 ft | 18 kts | 179° |
| 2026-05-01 09:02 | 14.65932 | -17.07077 | 307 ft | 18 kts | 180° |
| 2026-05-01 09:02 | 14.65806 | -17.07076 | 309 ft | 18 kts | 180° |
| 2026-05-01 09:03 | 14.65681 | -17.07075 | 309 ft | 18 kts | 180° |
| 2026-05-01 09:03 | 14.65566 | -17.07083 | 309 ft | 15 kts | 204° |
| 2026-05-01 09:03 | 14.65526 | -17.07167 | 310 ft | 14 kts | 264° |
| 2026-05-01 09:03 | 14.65546 | -17.07251 | 307 ft | 11 kts | 318° |
| 2026-05-01 09:04 | 14.65609 | -17.07270 | 306 ft | 10 kts | 358° |
| 2026-05-01 09:04 | 14.65743 | -17.07271 | 306 ft | 35 kts | 0° |
| 2026-05-01 09:04 | 14.66218 | -17.07277 | 306 ft | 104 kts | 359° |
| 2026-05-01 09:04 | 14.66803 | -17.07284 | 363 ft | 142 kts | 358° |
| 2026-05-01 09:05 | 14.67850 | -17.07293 | 1025 ft | 151 kts | 358° |
| 2026-05-01 09:05 | 14.68974 | -17.07299 | 1681 ft | 174 kts | 4° |
| 2026-05-01 09:05 | 14.70293 | -17.07295 | 2319 ft | 204 kts | 1° |
| 2026-05-01 09:05 | 14.71798 | -17.07320 | 3025 ft | 232 kts | 1° |
| 2026-05-01 09:06 | 14.73506 | -17.07338 | 3750 ft | 255 kts | 1° |
| 2026-05-01 09:06 | 14.75241 | -17.06984 | 4886 ft | 258 kts | 26° |
| 2026-05-01 09:06 | 14.76701 | -17.05887 | 5865 ft | 263 kts | 51° |
| 2026-05-01 09:06 | 14.77594 | -17.04246 | 6782 ft | 267 kts | 76° |
| 2026-05-01 09:07 | 14.77736 | -17.02338 | 7775 ft | 267 kts | 100° |
| 2026-05-01 09:07 | 14.77084 | -17.00543 | 8766 ft | 270 kts | 124° |
| 2026-05-01 09:07 | 14.75903 | -16.99036 | 9760 ft | 273 kts | 130° |
| 2026-05-01 09:07 | 14.74636 | -16.97516 | 10450 ft | 288 kts | 131° |
| 2026-05-01 09:08 | 14.74194 | -16.96990 | 10557 ft | 297 kts | 131° |
| 2026-05-01 09:08 | 14.70017 | -16.91978 | 12262 ft | 338 kts | 131° |
| 2026-05-01 09:08 | 14.68463 | -16.90113 | 13105 ft | 344 kts | 132° |
| 2026-05-01 09:09 | 14.66897 | -16.88237 | 13912 ft | 351 kts | 133° |
| 2026-05-01 09:09 | 14.65290 | -16.86308 | 14685 ft | 357 kts | 132° |
| 2026-05-01 09:09 | 14.63658 | -16.84349 | 15452 ft | 362 kts | 132° |
| 2026-05-01 09:09 | 14.62012 | -16.82373 | 16197 ft | 367 kts | 132° |
| 2026-05-01 09:10 | 14.60318 | -16.80343 | 16952 ft | 373 kts | 132° |
| 2026-05-01 09:10 | 14.58616 | -16.78303 | 17644 ft | 380 kts | 131° |
| 2026-05-01 09:10 | 14.56889 | -16.76233 | 18313 ft | 386 kts | 131° |
| 2026-05-01 09:10 | 14.55413 | -16.74463 | 18827 ft | 390 kts | 131° |
| 2026-05-01 09:11 | 14.53632 | -16.72330 | 19421 ft | 396 kts | 131° |
| 2026-05-01 09:11 | 14.51825 | -16.70166 | 20026 ft | 401 kts | 131° |
| 2026-05-01 09:11 | 14.49984 | -16.67961 | 20614 ft | 406 kts | 131° |
| 2026-05-01 09:11 | 14.48129 | -16.65740 | 21181 ft | 411 kts | 131° |
| 2026-05-01 09:12 | 14.46259 | -16.63503 | 21747 ft | 416 kts | 130° |
| 2026-05-01 09:12 | 14.44354 | -16.61223 | 22309 ft | 421 kts | 130° |
| 2026-05-01 09:12 | 14.42429 | -16.58922 | 22833 ft | 426 kts | 130° |
| 2026-05-01 09:12 | 14.40494 | -16.56608 | 23364 ft | 431 kts | 130° |
| 2026-05-01 09:13 | 14.38520 | -16.54248 | 23822 ft | 436 kts | 130° |
| 2026-05-01 09:13 | 14.36521 | -16.51859 | 24265 ft | 440 kts | 130° |
| 2026-05-01 09:13 | 14.34507 | -16.49454 | 24725 ft | 443 kts | 130° |
| 2026-05-01 09:13 | 14.32492 | -16.47048 | 25192 ft | 446 kts | 130° |
| 2026-05-01 09:14 | 14.30465 | -16.44628 | 25651 ft | 449 kts | 130° |
| 2026-05-01 09:14 | 14.28403 | -16.42167 | 26109 ft | 452 kts | 131° |
| 2026-05-01 09:14 | 14.26348 | -16.39714 | 26538 ft | 455 kts | 131° |
| 2026-05-01 09:14 | 14.24272 | -16.37239 | 26975 ft | 458 kts | 131° |
| 2026-05-01 09:15 | 14.22177 | -16.34740 | 27392 ft | 461 kts | 131° |
| 2026-05-01 09:15 | 14.20071 | -16.32230 | 27802 ft | 464 kts | 131° |
| 2026-05-01 09:15 | 14.17974 | -16.29731 | 28207 ft | 467 kts | 131° |
| 2026-05-01 09:15 | 14.15835 | -16.27183 | 28612 ft | 470 kts | 131° |
| 2026-05-01 09:16 | 14.13679 | -16.24615 | 29006 ft | 473 kts | 131° |
| 2026-05-01 09:16 | 14.11517 | -16.22042 | 29377 ft | 476 kts | 131° |
| 2026-05-01 09:16 | 14.09356 | -16.19469 | 29791 ft | 478 kts | 131° |
| 2026-05-01 09:17 | 14.04994 | -16.14281 | 30442 ft | 483 kts | 131° |
| 2026-05-01 09:17 | 14.02764 | -16.11629 | 30777 ft | 485 kts | 131° |
| 2026-05-01 09:17 | 13.98337 | -16.06368 | 31376 ft | 489 kts | 131° |
| 2026-05-01 09:18 | 13.96112 | -16.03724 | 31680 ft | 491 kts | 131° |
| 2026-05-01 09:18 | 13.91626 | -15.98399 | 32270 ft | 494 kts | 131° |
| 2026-05-01 09:19 | 13.87099 | -15.93027 | 32811 ft | 498 kts | 131° |
| 2026-05-01 09:19 | 13.84825 | -15.90330 | 33067 ft | 500 kts | 131° |
| 2026-05-01 09:19 | 13.82542 | -15.87624 | 33320 ft | 502 kts | 132° |
| 2026-05-01 09:20 | 13.77944 | -15.82175 | 33957 ft | 502 kts | 132° |
| 2026-05-01 09:20 | 13.73389 | -15.76781 | 34608 ft | 500 kts | 132° |
| 2026-05-01 09:21 | 13.68818 | -15.71372 | 35236 ft | 498 kts | 132° |
| 2026-05-01 09:21 | 13.66566 | -15.68708 | 35548 ft | 497 kts | 132° |
| 2026-05-01 09:21 | 13.62031 | -15.63347 | 35934 ft | 500 kts | 132° |
| 2026-05-01 09:22 | 13.52944 | -15.52612 | 35933 ft | 494 kts | 132° |
| 2026-05-01 09:23 | 13.46191 | -15.44645 | 35934 ft | 493 kts | 132° |
| 2026-05-01 09:24 | 13.39415 | -15.36657 | 35929 ft | 493 kts | 132° |
| 2026-05-01 09:25 | 13.30414 | -15.26059 | 35930 ft | 493 kts | 133° |
| 2026-05-01 09:26 | 13.24406 | -15.18992 | 35932 ft | 494 kts | 133° |
| 2026-05-01 09:26 | 13.17844 | -15.10830 | 35943 ft | 495 kts | 126° |
| 2026-05-01 09:27 | 13.11985 | -15.02081 | 35945 ft | 494 kts | 126° |
| 2026-05-01 09:28 | 13.08085 | -14.96290 | 35947 ft | 494 kts | 126° |
| 2026-05-01 09:28 | 13.04187 | -14.90487 | 35944 ft | 493 kts | 126° |
| 2026-05-01 09:29 | 12.98343 | -14.81810 | 35946 ft | 494 kts | 126° |
| 2026-05-01 09:30 | 12.92483 | -14.73113 | 35948 ft | 495 kts | 126° |
| 2026-05-01 09:30 | 12.86598 | -14.64388 | 35946 ft | 494 kts | 126° |
| 2026-05-01 09:31 | 12.82690 | -14.58599 | 35943 ft | 494 kts | 126° |
| 2026-05-01 09:32 | 12.76852 | -14.49957 | 35943 ft | 492 kts | 126° |
| 2026-05-01 09:32 | 12.71006 | -14.41311 | 35939 ft | 492 kts | 126° |
| 2026-05-01 09:33 | 12.67108 | -14.35551 | 35940 ft | 493 kts | 126° |
| 2026-05-01 09:34 | 12.61257 | -14.26912 | 35941 ft | 492 kts | 126° |
| 2026-05-01 09:34 | 12.55400 | -14.18273 | 35939 ft | 491 kts | 126° |
| 2026-05-01 09:35 | 12.49589 | -14.09708 | 35940 ft | 491 kts | 126° |
| 2026-05-01 09:36 | 12.45682 | -14.03955 | 35942 ft | 491 kts | 126° |
| 2026-05-01 09:36 | 12.41782 | -13.98215 | 35945 ft | 491 kts | 126° |
| 2026-05-01 09:37 | 12.37875 | -13.92468 | 35945 ft | 492 kts | 126° |
| 2026-05-01 09:37 | 12.32021 | -13.83864 | 35949 ft | 493 kts | 126° |
| 2026-05-01 09:38 | 12.26090 | -13.75261 | 35964 ft | 490 kts | 130° |
| 2026-05-01 09:39 | 12.19662 | -13.67137 | 35962 ft | 490 kts | 130° |
| 2026-05-01 09:39 | 12.15382 | -13.61726 | 35971 ft | 491 kts | 130° |
| 2026-05-01 09:40 | 12.08961 | -13.53609 | 35966 ft | 490 kts | 130° |
| 2026-05-01 09:41 | 12.04658 | -13.48177 | 35965 ft | 489 kts | 130° |
| 2026-05-01 09:41 | 11.98262 | -13.40107 | 35964 ft | 489 kts | 130° |
| 2026-05-01 09:42 | 11.93980 | -13.34707 | 35963 ft | 490 kts | 130° |
| 2026-05-01 09:43 | 11.85384 | -13.23876 | 35967 ft | 491 kts | 130° |